Time;durP1;ratioP1;P1;durP2;ratioP2;P2;SDS_P1;SDS_P2;PMS_P1;PMS_P2;Temp;Humidity;BMP_temperature;BMP_pressure;BME280_temperature;BME280_humidity;BME280_pressure;Samples;Min_cycle;Max_cycle;Signal;HPM_P1;HPM_P2
2022/12/05 00:03:32;;;;;;;6.63;2.55;;;;;;;;;;10443405;28;20415;-62
2022/12/05 00:08:33;;;;;;;11.18;2.25;;;;;;;;;;10441879;28;20028;-62
2022/12/05 00:13:34;;;;;;;4.07;2.50;;;;;;;;;;10440144;28;20024;-62
2022/12/05 00:18:34;;;;;;;3.63;2.10;;;;;;;;;;10446446;28;20025;-63
2022/12/05 00:23:35;;;;;;;7.60;2.80;;;;;;;;;;10446047;28;20033;-62
2022/12/05 00:28:36;;;;;;;4.38;2.30;;;;;;;;;;10441817;28;20484;-63
2022/12/05 00:33:37;;;;;;;4.95;2.42;;;;;;;;;;10444841;28;20675;-60
2022/12/05 00:38:38;;;;;;;5.55;2.47;;;;;;;;;;10445967;28;20083;-62
2022/12/05 00:43:40;;;;;;;4.13;2.40;;;;;;;;;;10436394;28;20036;-63
2022/12/05 00:48:41;;;;;;;6.15;2.42;;;;;;;;;;10451899;28;20033;-62
2022/12/05 00:53:42;;;;;;;3.40;2.20;;;;;;;;;;10453856;28;20424;-62
2022/12/05 00:58:44;;;;;;;3.97;2.10;;;;;;;;;;10453719;28;20025;-62
2022/12/05 01:03:45;;;;;;;4.80;2.55;;;;;;;;;;10454021;28;20028;-61
2022/12/05 01:08:46;;;;;;;6.13;2.00;;;;;;;;;;10452670;28;20037;-61
2022/12/05 01:13:46;;;;;;;17.23;2.53;;;;;;;;;;10450605;28;20388;-62
2022/12/05 01:18:47;;;;;;;3.15;2.08;;;;;;;;;;10451737;28;20096;-61
2022/12/05 01:23:48;;;;;;;6.53;2.55;;;;;;;;;;10453110;28;20295;-62
2022/12/05 01:28:50;;;;;;;3.00;1.92;;;;;;;;;;10451534;28;20458;-62
2022/12/05 01:33:53;;;;;;;3.50;2.15;;;;;;;;;;10453770;28;20025;-63
2022/12/05 01:38:55;;;;;;;3.70;2.00;;;;;;;;;;10451704;28;20495;-62
2022/12/05 01:44:06;;;;;;;7.70;2.20;;;;;;;;;;10440689;28;20033;-62
2022/12/05 01:49:36;;;;;;;4.15;2.00;;;;;;;;;;10452618;28;20428;-61
2022/12/05 01:54:37;;;;;;;5.35;2.90;;;;;;;;;;10452817;28;20380;-61
2022/12/05 01:59:44;;;;;;;1.92;1.75;;;;;;;;;;10443354;28;20423;-63
2022/12/05 02:05:19;;;;;;;2.90;2.05;;;;;;;;;;10448000;28;20120;-63
2022/12/05 02:10:19;;;;;;;3.95;2.17;;;;;;;;;;10443649;28;20112;-62
2022/12/05 02:16:06;;;;;;;4.70;2.55;;;;;;;;;;10448210;28;20035;-62
2022/12/05 02:21:25;;;;;;;4.43;2.13;;;;;;;;;;10413579;28;20041;-62
2022/12/05 02:26:51;;;;;;;;;;;;;;;;;;10451586;28;20033;-62
2022/12/05 02:32:12;;;;;;;2.25;2.03;;;;;;;;;;10446216;28;19916;-63
2022/12/05 02:37:26;;;;;;;3.58;1.95;;;;;;;;;;10440392;28;20348;-62
2022/12/05 02:42:50;;;;;;;3.28;2.08;;;;;;;;;;10421930;28;20036;-62
2022/12/05 02:47:53;;;;;;;2.58;1.95;;;;;;;;;;10450038;28;20124;-62
2022/12/05 02:52:58;;;;;;;4.82;2.15;;;;;;;;;;10447151;28;20024;-63
2022/12/05 02:58:04;;;;;;;2.42;2.13;;;;;;;;;;10449020;28;20184;-62
2022/12/05 03:03:18;;;;;;;2.40;2.00;;;;;;;;;;10446486;28;20056;-62
2022/12/05 03:08:25;;;;;;;4.13;2.90;;;;;;;;;;10447177;28;20503;-61
2022/12/05 03:13:32;;;;;;;1.80;1.70;;;;;;;;;;10433146;28;20025;-62
2022/12/05 03:18:43;;;;;;;5.28;2.05;;;;;;;;;;10448486;28;20036;-61
2022/12/05 03:23:53;;;;;;;2.80;2.00;;;;;;;;;;10443140;28;20029;-61
2022/12/05 03:29:09;;;;;;;5.13;2.17;;;;;;;;;;10456156;28;20132;-62
2022/12/05 03:34:31;;;;;;;3.78;1.77;;;;;;;;;;10440914;28;20530;-62
2022/12/05 03:39:37;;;;;;;3.28;2.17;;;;;;;;;;10448973;28;20502;-62
2022/12/05 03:44:56;;;;;;;2.10;1.90;;;;;;;;;;10436711;28;20380;-62
2022/12/05 03:50:07;;;;;;;2.03;1.83;;;;;;;;;;10448063;28;20447;-62
2022/12/05 03:55:12;;;;;;;3.65;1.95;;;;;;;;;;10452575;28;20123;-62
2022/12/05 04:00:22;;;;;;;3.53;1.95;;;;;;;;;;10462769;28;20418;-62
2022/12/05 04:05:43;;;;;;;4.13;2.00;;;;;;;;;;10439001;28;20310;-60
2022/12/05 04:10:50;;;;;;;2.97;2.22;;;;;;;;;;10446809;28;20033;-61
2022/12/05 04:21:50;;;;;;;3.28;2.00;;;;;;;;;;10404785;28;20032;-62
2022/12/05 04:27:07;;;;;;;2.38;2.08;;;;;;;;;;10454739;28;20511;-63
2022/12/05 04:32:12;;;;;;;1.70;1.60;;;;;;;;;;10447424;28;20472;-62
2022/12/05 04:37:15;;;;;;;2.20;1.80;;;;;;;;;;10453507;28;20396;-62
2022/12/05 04:42:21;;;;;;;2.55;1.63;;;;;;;;;;10445870;28;20037;-61
2022/12/05 04:47:28;;;;;;;4.13;1.90;;;;;;;;;;10453262;28;20025;-61
2022/12/05 04:52:31;;;;;;;1.60;1.50;;;;;;;;;;10451414;28;20025;-61
2022/12/05 04:57:41;;;;;;;2.45;1.90;;;;;;;;;;10453797;28;20047;-61
2022/12/05 05:03:10;;;;;;;2.75;1.95;;;;;;;;;;10452132;28;20028;-62
2022/12/05 05:08:24;;;;;;;1.75;1.65;;;;;;;;;;10457906;28;20021;-60
2022/12/05 05:13:25;;;;;;;2.13;1.88;;;;;;;;;;10441469;28;20040;-61
2022/12/05 05:18:25;;;;;;;2.05;1.80;;;;;;;;;;10452281;28;20469;-61
2022/12/05 05:23:26;;;;;;;2.38;1.98;;;;;;;;;;10442461;28;20446;-62
2022/12/05 05:28:26;;;;;;;3.88;1.80;;;;;;;;;;10451836;28;20416;-61
2022/12/05 05:33:27;;;;;;;2.00;1.83;;;;;;;;;;10432135;28;20435;-61
2022/12/05 05:38:28;;;;;;;2.03;1.85;;;;;;;;;;10452746;28;20388;-62
2022/12/05 05:43:28;;;;;;;1.67;1.58;;;;;;;;;;10440480;28;20029;-61
2022/12/05 05:48:29;;;;;;;1.95;1.80;;;;;;;;;;10439435;28;20123;-61
2022/12/05 05:53:30;;;;;;;1.83;1.67;;;;;;;;;;10452061;28;20051;-59
2022/12/05 05:58:31;;;;;;;2.63;1.88;;;;;;;;;;10444368;28;20033;-62
2022/12/05 06:03:31;;;;;;;4.65;1.80;;;;;;;;;;10450285;28;20024;-62
2022/12/05 06:08:35;;;;;;;4.57;1.80;;;;;;;;;;10452247;28;20258;-62
2022/12/05 06:13:36;;;;;;;1.95;1.35;;;;;;;;;;10448232;28;20036;-62
2022/12/05 06:18:37;;;;;;;2.67;1.80;;;;;;;;;;10445595;28;20143;-60
2022/12/05 06:23:38;;;;;;;5.47;1.67;;;;;;;;;;10449258;28;20024;-61
2022/12/05 06:28:39;;;;;;;2.83;1.50;;;;;;;;;;10449676;28;20396;-61
2022/12/05 06:33:40;;;;;;;4.38;1.45;;;;;;;;;;10444355;28;20040;-59
2022/12/05 06:38:41;;;;;;;2.15;1.85;;;;;;;;;;10448700;28;20053;-61
2022/12/05 06:43:42;;;;;;;7.28;2.08;;;;;;;;;;10443536;28;20086;-60
2022/12/05 06:48:43;;;;;;;2.65;2.10;;;;;;;;;;10446707;28;20365;-58
2022/12/05 06:53:44;;;;;;;2.90;2.13;;;;;;;;;;10449153;28;20029;-60
2022/12/05 06:58:48;;;;;;;3.75;2.40;;;;;;;;;;10443346;28;20112;-61
2022/12/05 07:03:49;;;;;;;3.78;2.03;;;;;;;;;;10446484;28;20029;-62
2022/12/05 07:08:50;;;;;;;3.88;2.13;;;;;;;;;;10443654;28;20028;-60
2022/12/05 07:13:50;;;;;;;6.25;2.08;;;;;;;;;;10441490;28;20369;-60
2022/12/05 07:18:51;;;;;;;3.15;2.00;;;;;;;;;;10445526;28;20059;-60
2022/12/05 07:23:52;;;;;;;6.47;2.03;;;;;;;;;;10436755;28;20051;-62
2022/12/05 07:28:55;;;;;;;5.78;2.20;;;;;;;;;;10436188;28;20064;-60
2022/12/05 07:33:58;;;;;;;3.83;1.98;;;;;;;;;;10448023;28;20472;-60
2022/12/05 07:38:59;;;;;;;5.45;1.95;;;;;;;;;;10448776;28;20029;-61
2022/12/05 07:43:59;;;;;;;2.45;1.90;;;;;;;;;;10447818;28;20021;-62
2022/12/05 07:49:00;;;;;;;6.00;2.35;;;;;;;;;;10447464;28;20036;-60
2022/12/05 07:54:01;;;;;;;5.57;2.10;;;;;;;;;;10446749;28;20175;-62
2022/12/05 07:59:01;;;;;;;3.42;1.90;;;;;;;;;;10455432;28;20021;-60
2022/12/05 08:04:02;;;;;;;4.90;2.22;;;;;;;;;;10455671;28;20103;-60
2022/12/05 08:09:02;;;;;;;4.43;2.25;;;;;;;;;;10456094;28;20124;-63
2022/12/05 08:14:05;;;;;;;3.40;2.25;;;;;;;;;;10456749;28;20029;-63
2022/12/05 08:19:09;;;;;;;2.65;2.10;;;;;;;;;;10454111;28;20078;-62
2022/12/05 08:24:10;;;;;;;4.07;2.42;;;;;;;;;;10454015;28;20044;-60
2022/12/05 08:29:13;;;;;;;7.47;2.08;;;;;;;;;;10453466;28;20059;-62
2022/12/05 08:34:16;;;;;;;1.98;1.80;;;;;;;;;;10436226;28;20032;-60
2022/12/05 08:39:18;;;;;;;5.30;2.08;;;;;;;;;;10453337;28;20025;-62
2022/12/05 08:44:19;;;;;;;3.75;2.00;;;;;;;;;;10453546;28;20021;-61
2022/12/05 08:49:19;;;;;;;5.40;1.92;;;;;;;;;;10452851;28;20108;-61
2022/12/05 08:54:20;;;;;;;2.40;1.65;;;;;;;;;;10452421;28;20036;-59
2022/12/05 08:59:20;;;;;;;2.25;1.80;;;;;;;;;;10452906;28;20017;-60
2022/12/05 09:04:21;;;;;;;5.30;2.35;;;;;;;;;;10452242;28;20021;-62
2022/12/05 09:09:22;;;;;;;2.10;1.90;;;;;;;;;;10451964;28;20040;-62
2022/12/05 09:14:23;;;;;;;4.68;2.30;;;;;;;;;;10453498;28;20032;-63
2022/12/05 09:19:25;;;;;;;2.88;1.98;;;;;;;;;;10448390;28;20040;-63
2022/12/05 09:24:26;;;;;;;6.10;2.08;;;;;;;;;;10450429;28;20059;-63
2022/12/05 09:29:28;;;;;;;3.83;2.25;;;;;;;;;;10447969;28;20128;-63
2022/12/05 09:34:28;;;;;;;2.65;2.10;;;;;;;;;;10449570;28;20048;-60
2022/12/05 09:39:29;;;;;;;2.88;2.05;;;;;;;;;;10445488;28;20064;-60
2022/12/05 09:44:38;;;;;;;2.65;1.73;;;;;;;;;;10450983;28;21137;-61
2022/12/05 09:49:49;;;;;;;4.18;2.10;;;;;;;;;;10451935;28;20024;-62
2022/12/05 09:54:52;;;;;;;5.00;1.98;;;;;;;;;;10444934;28;20527;-62
2022/12/05 09:59:53;;;;;;;2.28;2.08;;;;;;;;;;10448477;28;20029;-63
2022/12/05 10:05:24;;;;;;;2.42;1.70;;;;;;;;;;10449051;28;20388;-62
2022/12/05 10:10:58;;;;;;;5.20;1.95;;;;;;;;;;10451754;28;20033;-62
2022/12/05 10:16:15;;;;;;;3.20;1.60;;;;;;;;;;10451323;28;20036;-62
2022/12/05 10:21:37;;;;;;;2.50;1.90;;;;;;;;;;10450502;28;20039;-63
2022/12/05 10:26:45;;;;;;;2.67;1.70;;;;;;;;;;10438110;28;20040;-63
2022/12/05 10:31:47;;;;;;;2.30;2.07;;;;;;;;;;10449650;28;20071;-63
2022/12/05 10:37:29;;;;;;;2.38;1.73;;;;;;;;;;10449757;28;20029;-62
2022/12/05 10:42:34;;;;;;;2.85;1.92;;;;;;;;;;10440265;28;20037;-60
2022/12/05 10:47:35;;;;;;;3.47;1.90;;;;;;;;;;10445798;28;20369;-63
2022/12/05 10:52:36;;;;;;;2.63;1.77;;;;;;;;;;10449224;28;20020;-63
2022/12/05 10:57:36;;;;;;;4.65;2.10;;;;;;;;;;10445066;28;20028;-62
2022/12/05 11:02:39;;;;;;;2.58;2.05;;;;;;;;;;10448892;28;20021;-62
2022/12/05 11:07:43;;;;;;;3.05;2.15;;;;;;;;;;10446148;28;20112;-61
2022/12/05 11:12:44;;;;;;;2.03;1.70;;;;;;;;;;10439091;28;20546;-61
2022/12/05 11:17:45;;;;;;;2.67;1.90;;;;;;;;;;10444656;28;20103;-62
2022/12/05 11:22:49;;;;;;;3.35;2.15;;;;;;;;;;10445882;28;20111;-62
2022/12/05 11:27:50;;;;;;;2.53;1.90;;;;;;;;;;10441112;28;20076;-62
2022/12/05 11:32:50;;;;;;;2.80;1.90;;;;;;;;;;10445299;28;20111;-62
2022/12/05 11:38:05;;;;;;;3.15;1.77;;;;;;;;;;10441172;28;20388;-62
2022/12/05 11:43:30;;;;;;;2.63;1.90;;;;;;;;;;10442698;28;20029;-63
2022/12/05 11:49:15;;;;;;;3.20;2.10;;;;;;;;;;10435793;28;20116;-62
2022/12/05 11:54:40;;;;;;;4.40;1.90;;;;;;;;;;10433023;28;20126;-62
2022/12/05 12:00:15;;;;;;;2.30;1.70;;;;;;;;;;10447604;28;20028;-63
2022/12/05 12:05:54;;;;;;;2.10;1.90;;;;;;;;;;10448072;28;20025;-63
2022/12/05 12:11:02;;;;;;;;;;;;;;;;;;10431834;28;20046;-62
2022/12/05 12:16:16;;;;;;;2.53;1.80;;;;;;;;;;10444790;28;19920;-63
2022/12/05 12:21:44;;;;;;;2.95;1.90;;;;;;;;;;10444439;28;20027;-62
2022/12/05 12:27:21;;;;;;;2.35;2.00;;;;;;;;;;10438911;28;20403;-63
2022/12/05 12:32:55;;;;;;;2.28;2.00;;;;;;;;;;10437511;28;20362;-62
2022/12/05 12:38:23;;;;;;;1.75;1.65;;;;;;;;;;10441532;28;20381;-60
2022/12/05 12:43:52;;;;;;;1.85;1.55;;;;;;;;;;10440619;28;20086;-60
2022/12/05 12:49:09;;;;;;;;;;;;;;;;;;10447789;28;20036;-61
2022/12/05 12:54:23;;;;;;;1.77;1.60;;;;;;;;;;10450918;28;19923;-62
2022/12/05 12:59:53;;;;;;;2.38;1.52;;;;;;;;;;10453015;28;20060;-61
2022/12/05 13:05:01;;;;;;;2.60;2.03;;;;;;;;;;10443483;28;20095;-60
2022/12/05 13:10:14;;;;;;;4.45;1.85;;;;;;;;;;10451608;28;20103;-59
2022/12/05 13:15:23;;;;;;;6.80;1.90;;;;;;;;;;10446677;28;20028;-61
2022/12/05 13:20:29;;;;;;;2.13;1.70;;;;;;;;;;10438113;28;20044;-62
2022/12/05 13:25:33;;;;;;;2.03;1.70;;;;;;;;;;10462577;28;20112;-62
2022/12/05 13:30:56;;;;;;;3.17;1.90;;;;;;;;;;10442827;28;20037;-61
2022/12/05 13:47:06;;;;;;;4.25;1.60;;;;;;;;;;10442222;28;20041;-59
2022/12/05 13:52:13;;;;;;;2.55;1.90;;;;;;;;;;10441528;28;20017;-61
2022/12/05 13:57:39;;;;;;;1.85;1.60;;;;;;;;;;10442322;28;20499;-61
2022/12/05 14:02:42;;;;;;;5.72;2.05;;;;;;;;;;10445196;28;20078;-61
2022/12/05 14:07:48;;;;;;;3.28;2.00;;;;;;;;;;10452686;28;20040;-61
2022/12/05 14:12:58;;;;;;;1.92;1.73;;;;;;;;;;10450352;28;20099;-60
2022/12/05 14:18:11;;;;;;;2.55;1.90;;;;;;;;;;10464071;28;20399;-61
2022/12/05 14:23:12;;;;;;;4.97;2.13;;;;;;;;;;10442522;28;21150;-60
2022/12/05 14:28:42;;;;;;;2.30;1.90;;;;;;;;;;10444835;28;20073;-60
2022/12/05 14:33:44;;;;;;;2.85;1.88;;;;;;;;;;10447763;28;20049;-59
2022/12/05 14:38:45;;;;;;;2.67;1.63;;;;;;;;;;10444897;28;20519;-59
2022/12/05 14:43:53;;;;;;;4.72;1.80;;;;;;;;;;10440793;28;20024;-59
2022/12/05 14:48:54;;;;;;;2.20;1.75;;;;;;;;;;10442782;28;20095;-59
2022/12/05 14:54:17;;;;;;;3.72;1.80;;;;;;;;;;10441392;28;20063;-60
2022/12/05 14:59:27;;;;;;;3.70;1.90;;;;;;;;;;10450170;28;20369;-60
2022/12/05 15:04:49;;;;;;;3.75;1.73;;;;;;;;;;10442116;28;20051;-61
2022/12/05 15:10:07;;;;;;;2.67;1.45;;;;;;;;;;10440385;28;20122;-60
2022/12/05 15:15:37;;;;;;;2.05;1.50;;;;;;;;;;10444866;28;20033;-61
2022/12/05 15:20:48;;;;;;;5.15;1.77;;;;;;;;;;10442162;28;20029;-61
2022/12/05 15:25:52;;;;;;;3.15;1.70;;;;;;;;;;10445399;28;20057;-61
2022/12/05 15:30:56;;;;;;;2.90;1.90;;;;;;;;;;10445576;28;20094;-61
2022/12/05 15:35:58;;;;;;;4.18;1.90;;;;;;;;;;10431947;28;20120;-61
2022/12/05 15:40:58;;;;;;;2.60;1.70;;;;;;;;;;10445298;28;20047;-61
2022/12/05 15:46:23;;;;;;;5.40;1.98;;;;;;;;;;10446865;28;20025;-61
2022/12/05 15:51:35;;;;;;;2.13;1.50;;;;;;;;;;10435521;28;20496;-61
2022/12/05 15:57:12;;;;;;;2.15;1.50;;;;;;;;;;10439208;28;20056;-60
2022/12/05 16:02:40;;;;;;;5.13;1.80;;;;;;;;;;10443119;28;20041;-60
2022/12/05 16:07:48;;;;;;;;;;;;;;;;;;10429415;28;20033;-60
2022/12/05 16:12:51;;;;;;;1.40;1.30;;;;;;;;;;10444874;28;20322;-59
2022/12/05 16:18:01;;;;;;;1.60;1.50;;;;;;;;;;10449364;28;20028;-61
2022/12/05 16:23:22;;;;;;;3.72;1.55;;;;;;;;;;10454151;28;20513;-61
2022/12/05 16:28:22;;;;;;;1.83;1.63;;;;;;;;;;10444696;28;20136;-60
2022/12/05 16:33:23;;;;;;;1.67;1.48;;;;;;;;;;10452798;28;20511;-60
2022/12/05 16:38:28;;;;;;;1.52;1.40;;;;;;;;;;10451422;28;20077;-61
2022/12/05 16:43:32;;;;;;;2.40;1.85;;;;;;;;;;10448334;28;20033;-60
2022/12/05 16:48:33;;;;;;;2.92;2.25;;;;;;;;;;10447840;28;20035;-59
2022/12/05 16:53:33;;;;;;;4.15;2.13;;;;;;;;;;10447291;28;20291;-60
2022/12/05 16:58:34;;;;;;;3.05;2.00;;;;;;;;;;10452604;28;20313;-60
2022/12/05 17:03:35;;;;;;;5.43;2.20;;;;;;;;;;10451724;28;20108;-61
2022/12/05 17:08:35;;;;;;;4.22;2.35;;;;;;;;;;10448820;28;20036;-60
2022/12/05 17:13:36;;;;;;;3.63;2.20;;;;;;;;;;10454356;28;20479;-60
2022/12/05 17:18:37;;;;;;;5.40;2.13;;;;;;;;;;10452597;28;20418;-60
2022/12/05 17:23:37;;;;;;;2.90;2.13;;;;;;;;;;10452319;28;20017;-60
2022/12/05 17:28:38;;;;;;;3.40;2.30;;;;;;;;;;10450506;28;20041;-60
2022/12/05 17:33:38;;;;;;;3.30;2.25;;;;;;;;;;10452806;28;20025;-60
2022/12/05 17:38:39;;;;;;;4.00;2.17;;;;;;;;;;10450765;28;20017;-60
2022/12/05 17:43:40;;;;;;;5.65;2.17;;;;;;;;;;10444720;28;20027;-59
2022/12/05 17:48:41;;;;;;;5.95;2.10;;;;;;;;;;10451738;28;20028;-60
2022/12/05 17:53:46;;;;;;;2.78;2.35;;;;;;;;;;10448404;28;20036;-59
2022/12/05 17:58:47;;;;;;;3.90;2.55;;;;;;;;;;10441744;28;20070;-60
2022/12/05 18:03:48;;;;;;;3.05;2.30;;;;;;;;;;10448329;28;20024;-60
2022/12/05 18:08:48;;;;;;;6.18;2.72;;;;;;;;;;10439775;28;20036;-60
2022/12/05 18:13:49;;;;;;;5.43;3.00;;;;;;;;;;10402806;28;20182;-60
2022/12/05 18:18:50;;;;;;;7.13;2.90;;;;;;;;;;10415808;28;20036;-60
2022/12/05 18:23:51;;;;;;;7.70;2.97;;;;;;;;;;10408507;28;20036;-60
2022/12/05 18:28:53;;;;;;;6.43;3.60;;;;;;;;;;10403450;28;20120;-60
2022/12/05 18:33:54;;;;;;;8.75;3.35;;;;;;;;;;10407059;28;20060;-59
2022/12/05 18:38:56;;;;;;;5.88;2.90;;;;;;;;;;10404865;28;20034;-60
2022/12/05 18:43:57;;;;;;;6.43;2.88;;;;;;;;;;10403781;28;20144;-59
2022/12/05 18:48:58;;;;;;;6.43;2.95;;;;;;;;;;10406560;28;20615;-60
2022/12/05 18:53:58;;;;;;;6.60;3.30;;;;;;;;;;10398218;28;20037;-60
2022/12/05 18:59:02;;;;;;;5.43;3.08;;;;;;;;;;10396451;28;20022;-60
2022/12/05 19:04:05;;;;;;;12.93;3.35;;;;;;;;;;10404561;28;20030;-59
2022/12/05 19:09:14;;;;;;;7.95;3.40;;;;;;;;;;10401025;28;20481;-59
2022/12/05 19:14:18;;;;;;;10.68;3.90;;;;;;;;;;10399084;28;20434;-60
2022/12/05 19:19:19;;;;;;;9.82;4.28;;;;;;;;;;10419505;28;20485;-58
2022/12/05 19:24:20;;;;;;;13.38;4.25;;;;;;;;;;10402510;28;20091;-59
2022/12/05 19:29:20;;;;;;;9.43;4.50;;;;;;;;;;10401150;28;20103;-59
2022/12/05 19:34:23;;;;;;;18.58;4.85;;;;;;;;;;10397254;28;21056;-60
2022/12/05 19:39:24;;;;;;;26.25;6.68;;;;;;;;;;10404883;28;20052;-60
2022/12/05 19:44:25;;;;;;;19.70;4.78;;;;;;;;;;10400562;28;20116;-59
2022/12/05 19:49:26;;;;;;;10.85;4.28;;;;;;;;;;10407869;28;20025;-59
2022/12/05 19:54:27;;;;;;;10.80;4.85;;;;;;;;;;10411188;28;20022;-60
2022/12/05 19:59:27;;;;;;;12.52;4.97;;;;;;;;;;10401414;28;20025;-60
2022/12/05 20:04:28;;;;;;;12.40;4.40;;;;;;;;;;10405001;28;20032;-60
2022/12/05 20:09:28;;;;;;;11.68;4.45;;;;;;;;;;10411271;28;20049;-60
2022/12/05 20:14:29;;;;;;;19.77;4.93;;;;;;;;;;10405014;28;20034;-59
2022/12/05 20:19:30;;;;;;;9.55;4.57;;;;;;;;;;10407643;28;20030;-59
2022/12/05 20:24:30;;;;;;;10.68;4.93;;;;;;;;;;10411911;28;20432;-60
2022/12/05 20:29:31;;;;;;;11.57;5.32;;;;;;;;;;10407814;28;20390;-59
2022/12/05 20:34:31;;;;;;;14.20;4.72;;;;;;;;;;10411725;28;20103;-59
2022/12/05 20:39:32;;;;;;;13.43;4.45;;;;;;;;;;10405931;28;20087;-59
2022/12/05 20:44:36;;;;;;;14.57;5.10;;;;;;;;;;10401961;28;20120;-59
2022/12/05 20:49:36;;;;;;;11.23;4.70;;;;;;;;;;10406330;28;20037;-57
2022/12/05 20:54:37;;;;;;;8.40;4.32;;;;;;;;;;10413979;28;20029;-60
2022/12/05 20:59:37;;;;;;;14.98;4.47;;;;;;;;;;10413278;28;20409;-60
2022/12/05 21:04:39;;;;;;;5.72;4.38;;;;;;;;;;10412392;28;20385;-61
2022/12/05 21:09:40;;;;;;;10.48;4.95;;;;;;;;;;10410797;28;20179;-61
2022/12/05 21:14:40;;;;;;;9.27;4.07;;;;;;;;;;10412060;28;20096;-60
2022/12/05 21:19:42;;;;;;;10.45;4.93;;;;;;;;;;10410067;28;20106;-60
2022/12/05 21:24:42;;;;;;;7.30;4.22;;;;;;;;;;10408488;28;20400;-60
2022/12/05 21:29:43;;;;;;;11.30;4.43;;;;;;;;;;10406374;28;20045;-61
2022/12/05 21:34:43;;;;;;;15.15;5.00;;;;;;;;;;10403894;28;20125;-60
2022/12/05 21:39:44;;;;;;;14.73;5.13;;;;;;;;;;10402969;28;20036;-58
2022/12/05 21:44:45;;;;;;;10.95;5.13;;;;;;;;;;10406183;28;20036;-58
2022/12/05 21:49:45;;;;;;;7.05;4.22;;;;;;;;;;10405924;28;20386;-60
2022/12/05 21:54:47;;;;;;;9.15;4.63;;;;;;;;;;10405329;28;20025;-59
2022/12/05 21:59:52;;;;;;;10.98;5.10;;;;;;;;;;10406872;28;20503;-60
2022/12/05 22:04:52;;;;;;;9.55;3.92;;;;;;;;;;10410228;28;20017;-60
2022/12/05 22:09:53;;;;;;;8.35;4.15;;;;;;;;;;10408491;28;20025;-60
2022/12/05 22:14:54;;;;;;;6.20;3.88;;;;;;;;;;10406046;28;20151;-59
2022/12/05 22:19:55;;;;;;;12.23;3.90;;;;;;;;;;10400449;28;20033;-60
2022/12/05 22:24:56;;;;;;;11.73;4.30;;;;;;;;;;10409316;28;20116;-60
2022/12/05 22:29:57;;;;;;;10.23;3.80;;;;;;;;;;10408662;28;20095;-58
2022/12/05 22:34:57;;;;;;;8.60;3.85;;;;;;;;;;10409380;28;20025;-58
2022/12/05 22:39:58;;;;;;;6.82;4.15;;;;;;;;;;10405354;28;20416;-60
2022/12/05 22:44:58;;;;;;;6.97;4.13;;;;;;;;;;10408957;28;20465;-60
2022/12/05 22:49:59;;;;;;;9.05;4.18;;;;;;;;;;10408620;28;20033;-59
2022/12/05 22:54:59;;;;;;;16.63;5.00;;;;;;;;;;10408417;28;20025;-62
2022/12/05 23:00:00;;;;;;;7.45;3.50;;;;;;;;;;10408889;28;20416;-60
2022/12/05 23:05:01;;;;;;;7.85;3.63;;;;;;;;;;10398480;28;20029;-60
2022/12/05 23:10:01;;;;;;;5.75;3.70;;;;;;;;;;10404339;28;20033;-61
2022/12/05 23:15:02;;;;;;;9.90;3.92;;;;;;;;;;10402707;28;20373;-62
2022/12/05 23:20:04;;;;;;;7.18;3.67;;;;;;;;;;10405013;28;20087;-61
2022/12/05 23:25:05;;;;;;;5.57;3.75;;;;;;;;;;10406898;28;20158;-60
2022/12/05 23:30:07;;;;;;;6.68;3.47;;;;;;;;;;10407354;28;20045;-60
2022/12/05 23:35:09;;;;;;;9.45;4.05;;;;;;;;;;10407269;28;20063;-60
2022/12/05 23:40:10;;;;;;;9.80;3.35;;;;;;;;;;10407297;28;20092;-60
2022/12/05 23:45:11;;;;;;;6.65;3.72;;;;;;;;;;10407202;28;20021;-59
2022/12/05 23:50:11;;;;;;;5.80;3.50;;;;;;;;;;10406006;28;20100;-60
2022/12/05 23:55:12;;;;;;;8.55;3.75;;;;;;;;;;10406842;28;20120;-59
